This is the latest recevied weather packets stored in our database for station/object WB0OCV. If no packets are shown the sender has not sent any weather packets the latest 10 day(s).
| Time | Temp. | Humidity | Pressure | Rain* | Wind** | Luminosity | Snow |
|---|---|---|---|---|---|---|---|
| 1778166534 | 13.89° C | 79% | 1010.4 hPa | 0 mm | - | 198 W/m² | - |
| 1778166231 | 12.78° C | 85% | 1010.5 hPa | 0 mm | - | 457 W/m² | - |
| 1778165927 | 12.78° C | 81% | 1010.2 hPa | 0 mm | - | 275 W/m² | - |
| 1778165623 | 12.22° C | 86% | 1010.1 hPa | 0 mm | - | 938 W/m² | - |
| 1778165320 | 12.22° C | 85% | 1010.1 hPa | 0 mm | - | 351 W/m² | - |
| 1778165017 | 11.67° C | 89% | 1010.3 hPa | 0 mm | - | 203 W/m² | - |
| 1778164714 | 11.67° C | 90% | 1010.3 hPa | 0 mm | - | 228 W/m² | - |
| 1778164411 | 11.67° C | 90% | 1010.5 hPa | 0 mm | - | 257 W/m² | - |
| 1778164107 | 11.67° C | 90% | 1010.4 hPa | 0 mm | - | 228 W/m² | - |
| 1778163804 | 11.67° C | 90% | 1010.5 hPa | 0 mm | - | 279 W/m² | - |
| 1778163501 | 11.11° C | 93% | 1010.5 hPa | 0 mm | - | 269 W/m² | - |
| 1778163197 | 10.56° C | 93% | 1010.4 hPa | 0 mm | - | 348 W/m² | - |
| 1778162894 | 10.56° C | 94% | 1010.5 hPa | 0 mm | - | 249 W/m² | - |
| 1778162591 | 10.56° C | 94% | 1010.6 hPa | 0 mm | - | 183 W/m² | - |
| 1778162288 | 10.56° C | 94% | 1010.6 hPa | 0 mm | - | 193 W/m² | - |
| 1778161985 | 10.56° C | 94% | 1010.4 hPa | 0 mm | - | 185 W/m² | - |
| 1778161682 | 10° C | 94% | 1010.3 hPa | 0 mm | - | 161 W/m² | - |
| 1778161378 | 10° C | 95% | 1010.2 hPa | 0 mm | - | 167 W/m² | - |
| 1778161074 | 10° C | 96% | 1010.3 hPa | 0 mm | - | 136 W/m² | - |
| 1778160770 | 10° C | 96% | 1010.4 hPa | 0 mm | - | 159 W/m² | - |
| 1778160469 | 10° C | 97% | 1010.3 hPa | 0 mm | - | 173 W/m² | - |
| 1778160165 | 10° C | 97% | 1010.4 hPa | 0 mm | - | 180 W/m² | - |
| 1778159862 | 10° C | 97% | 1010.1 hPa | 0 mm | - | 165 W/m² | - |
| 1778159559 | 9.44° C | 97% | 1010 hPa | 0 mm | - | 158 W/m² | - |
| 1778159255 | 9.44° C | 97% | 1010 hPa | 0 mm | - | 172 W/m² | - |
* Rain latest hour (hover to see other rain measurements)
** Current wind speed in m/s (hover to see current wind gust speed)